Terminal Aerodrome Forecast
Issued by NWS Brownsville, TX

Home | Current Version | Previous Version | Text Only | Print | Product List | Glossary On
Versions: 1 2 3 4 5 6 7 8 9 10 11 12 13 14 15 16 17 18 19 20 21 22 23 24
000
FTUS44 KBRO 260825 AAD
TAFBRO
TAF AMD
KBRO 260825Z 2608/2706 14020G27KT P6SM SCT006 BKN015
      TEMPO 2608/2612 BKN006
     FM261500 14015G20KT P6SM BKN025
     FM261700 15018G25KT P6SM SCT030 BKN050 OVC250
     FM270200 14012G18KT P6SM BKN015 PROB30 2702/2706 4SM -TSRA
      BKN010CB=

USA.gov is the U.S. government's official web portal to all federal, state and local government web resources and services.